sensor_id;sensor_type;location;lat;lon;timestamp;pressure;altitude;pressure_sealevel;temperature;humidity
34297;BME280;20564;42.902;25.336;2023-03-22T00:00:19;96890.16;;;9.37;100.00
34297;BME280;20564;42.902;25.336;2023-03-22T00:02:47;96897.59;;;9.32;100.00
34297;BME280;20564;42.902;25.336;2023-03-22T00:05:15;96883.53;;;9.24;100.00
34297;BME280;20564;42.902;25.336;2023-03-22T00:07:42;96889.31;;;9.27;100.00
34297;BME280;20564;42.902;25.336;2023-03-22T00:10:10;96884.91;;;9.37;100.00
34297;BME280;20564;42.902;25.336;2023-03-22T00:12:38;96897.34;;;9.35;100.00
34297;BME280;20564;42.902;25.336;2023-03-22T00:15:18;96888.06;;;9.31;100.00
34297;BME280;20564;42.902;25.336;2023-03-22T00:17:47;96888.63;;;9.35;100.00
34297;BME280;20564;42.902;25.336;2023-03-22T00:20:20;96884.91;;;9.37;100.00
34297;BME280;20564;42.902;25.336;2023-03-22T00:22:54;96884.91;;;9.37;100.00
34297;BME280;20564;42.902;25.336;2023-03-22T00:25:22;96875.34;;;9.46;100.00
34297;BME280;20564;42.902;25.336;2023-03-22T00:28:05;96878.78;;;9.47;100.00
34297;BME280;20564;42.902;25.336;2023-03-22T00:30:38;96879.09;;;9.44;100.00
34297;BME280;20564;42.902;25.336;2023-03-22T00:33:08;96877.41;;;9.52;100.00
34297;BME280;20564;42.902;25.336;2023-03-22T00:35:36;96872.69;;;9.56;100.00
34297;BME280;20564;42.902;25.336;2023-03-22T00:38:04;96871.34;;;9.52;100.00
34297;BME280;20564;42.902;25.336;2023-03-22T00:40:41;96873.81;;;9.53;100.00
34297;BME280;20564;42.902;25.336;2023-03-22T00:43:08;96866.91;;;9.52;100.00
34297;BME280;20564;42.902;25.336;2023-03-22T00:45:41;96874.94;;;9.51;100.00
34297;BME280;20564;42.902;25.336;2023-03-22T00:48:13;96874.94;;;9.51;100.00
34297;BME280;20564;42.902;25.336;2023-03-22T00:50:41;96866.75;;;9.54;100.00
34297;BME280;20564;42.902;25.336;2023-03-22T00:53:23;96876.81;;;9.68;100.00
34297;BME280;20564;42.902;25.336;2023-03-22T00:55:59;96868.25;;;9.66;100.00
34297;BME280;20564;42.902;25.336;2023-03-22T00:58:27;96867.84;;;9.61;100.00
34297;BME280;20564;42.902;25.336;2023-03-22T01:00:55;96863.28;;;9.63;100.00
34297;BME280;20564;42.902;25.336;2023-03-22T01:03:22;96860.09;;;9.69;100.00
34297;BME280;20564;42.902;25.336;2023-03-22T01:05:51;96866.03;;;9.71;100.00
34297;BME280;20564;42.902;25.336;2023-03-22T01:08:24;96866.03;;;9.71;100.00
34297;BME280;20564;42.902;25.336;2023-03-22T01:11:01;96873.25;;;9.69;100.00
34297;BME280;20564;42.902;25.336;2023-03-22T01:13:39;96875.72;;;9.71;100.00
34297;BME280;20564;42.902;25.336;2023-03-22T01:16:08;96865.75;;;9.74;100.00
34297;BME280;20564;42.902;25.336;2023-03-22T01:18:36;96864.09;;;9.73;100.00
34297;BME280;20564;42.902;25.336;2023-03-22T01:21:04;96865.47;;;9.77;100.00
34297;BME280;20564;42.902;25.336;2023-03-22T01:23:32;96870.97;;;9.84;100.00
34297;BME280;20564;42.902;25.336;2023-03-22T01:26:01;96857.28;;;9.80;100.00
34297;BME280;20564;42.902;25.336;2023-03-22T01:28:29;96853.41;;;9.84;100.00
34297;BME280;20564;42.902;25.336;2023-03-22T01:31:02;96848.28;;;9.83;100.00
34297;BME280;20564;42.902;25.336;2023-03-22T01:33:30;96848.81;;;9.86;100.00
34297;BME280;20564;42.902;25.336;2023-03-22T01:35:58;96847.88;;;9.87;100.00
34297;BME280;20564;42.902;25.336;2023-03-22T01:38:25;96843.56;;;9.86;100.00
34297;BME280;20564;42.902;25.336;2023-03-22T01:40:53;96844.25;;;9.88;100.00
34297;BME280;20564;42.902;25.336;2023-03-22T01:43:20;96843.28;;;9.89;100.00
34297;BME280;20564;42.902;25.336;2023-03-22T01:45:50;96842.16;;;9.92;100.00
34297;BME280;20564;42.902;25.336;2023-03-22T01:48:32;96837.44;;;9.96;100.00
34297;BME280;20564;42.902;25.336;2023-03-22T01:51:08;96839.38;;;9.94;100.00
34297;BME280;20564;42.902;25.336;2023-03-22T01:54:04;96840.50;;;9.91;100.00
34297;BME280;20564;42.902;25.336;2023-03-22T01:56:36;96836.38;;;9.88;100.00
34297;BME280;20564;42.902;25.336;2023-03-22T01:59:07;96833.31;;;9.83;100.00
34297;BME280;20564;42.902;25.336;2023-03-22T02:01:36;96838.00;;;9.89;100.00
34297;BME280;20564;42.902;25.336;2023-03-22T02:04:08;96832.72;;;9.99;100.00
34297;BME280;20564;42.902;25.336;2023-03-22T02:06:38;96841.59;;;9.98;100.00
34297;BME280;20564;42.902;25.336;2023-03-22T02:09:09;96835.47;;;9.98;100.00
34297;BME280;20564;42.902;25.336;2023-03-22T02:11:40;96840.75;;;9.98;100.00
34297;BME280;20564;42.902;25.336;2023-03-22T02:17:18;96837.44;;;9.96;100.00
34297;BME280;20564;42.902;25.336;2023-03-22T02:23:08;96837.28;;;9.97;100.00
34297;BME280;20564;42.902;25.336;2023-03-22T02:28:32;96837.44;;;9.96;100.00
34297;BME280;20564;42.902;25.336;2023-03-22T02:39:31;96839.78;;;9.99;100.00
34297;BME280;20564;42.902;25.336;2023-03-22T02:42:40;96837.81;;;10.01;100.00
34297;BME280;20564;42.902;25.336;2023-03-22T02:45:31;96846.53;;;10.01;100.00
34297;BME280;20564;42.902;25.336;2023-03-22T02:48:10;96854.69;;;10.08;100.00
34297;BME280;20564;42.902;25.336;2023-03-22T02:50:42;96843.50;;;10.06;100.00
34297;BME280;20564;42.902;25.336;2023-03-22T02:53:19;96850.25;;;10.08;100.00
34297;BME280;20564;42.902;25.336;2023-03-22T02:56:43;96848.34;;;10.01;100.00
34297;BME280;20564;42.902;25.336;2023-03-22T02:58:53;96863.13;;;10.02;100.00
34297;BME280;20564;42.902;25.336;2023-03-22T03:01:34;96861.50;;;10.01;100.00
34297;BME280;20564;42.902;25.336;2023-03-22T03:04:09;96860.13;;;9.97;100.00
34297;BME280;20564;42.902;25.336;2023-03-22T03:06:41;96864.53;;;10.06;100.00
34297;BME280;20564;42.902;25.336;2023-03-22T03:09:18;96876.69;;;10.07;100.00
34297;BME280;20564;42.902;25.336;2023-03-22T03:11:50;96886.66;;;10.13;100.00
34297;BME280;20564;42.902;25.336;2023-03-22T03:14:25;96894.69;;;10.02;100.00
34297;BME280;20564;42.902;25.336;2023-03-22T03:28:46;96864.66;;;9.67;100.00
34297;BME280;20564;42.902;25.336;2023-03-22T03:31:30;96846.25;;;9.67;100.00
34297;BME280;20564;42.902;25.336;2023-03-22T03:34:34;96849.16;;;9.64;100.00
34297;BME280;20564;42.902;25.336;2023-03-22T03:37:42;96845.88;;;9.62;100.00
34297;BME280;20564;42.902;25.336;2023-03-22T03:40:15;96848.06;;;9.57;100.00
34297;BME280;20564;42.902;25.336;2023-03-22T03:42:48;96844.72;;;9.64;100.00
34297;BME280;20564;42.902;25.336;2023-03-22T03:45:19;96847.25;;;9.66;100.00
34297;BME280;20564;42.902;25.336;2023-03-22T03:47:48;96852.78;;;9.63;100.00
34297;BME280;20564;42.902;25.336;2023-03-22T03:50:24;96854.97;;;9.68;100.00
34297;BME280;20564;42.902;25.336;2023-03-22T03:52:54;96866.59;;;9.65;100.00
34297;BME280;20564;42.902;25.336;2023-03-22T03:55:23;96868.25;;;9.66;100.00
34297;BME280;20564;42.902;25.336;2023-03-22T03:57:52;96867.44;;;9.65;100.00
34297;BME280;20564;42.902;25.336;2023-03-22T04:00:20;96864.94;;;9.64;100.00
34297;BME280;20564;42.902;25.336;2023-03-22T04:02:48;96863.81;;;9.66;100.00
34297;BME280;20564;42.902;25.336;2023-03-22T04:05:16;96865.19;;;9.71;100.00
34297;BME280;20564;42.902;25.336;2023-03-22T04:07:45;96858.28;;;9.70;100.00
34297;BME280;20564;42.902;25.336;2023-03-22T04:10:12;96862.13;;;9.75;100.00
34297;BME280;20564;42.902;25.336;2023-03-22T04:12:55;96857.84;;;9.74;100.00
34297;BME280;20564;42.902;25.336;2023-03-22T04:15:23;96858.16;;;9.61;100.00
34297;BME280;20564;42.902;25.336;2023-03-22T04:17:51;96856.13;;;9.55;100.00
34297;BME280;20564;42.902;25.336;2023-03-22T04:20:20;96853.78;;;9.42;100.00
34297;BME280;20564;42.902;25.336;2023-03-22T04:22:49;96866.94;;;9.33;100.00
34297;BME280;20564;42.902;25.336;2023-03-22T04:25:20;96864.44;;;9.31;100.00
34297;BME280;20564;42.902;25.336;2023-03-22T04:27:50;96864.16;;;9.34;100.00
34297;BME280;20564;42.902;25.336;2023-03-22T04:30:19;96863.06;;;9.37;100.00
34297;BME280;20564;42.902;25.336;2023-03-22T04:32:48;96863.88;;;9.37;100.00
34297;BME280;20564;42.902;25.336;2023-03-22T04:35:24;96868.59;;;9.34;100.00
34297;BME280;20564;42.902;25.336;2023-03-22T04:37:55;96871.34;;;9.32;100.00
34297;BME280;20564;42.902;25.336;2023-03-22T04:40:23;96871.22;;;9.34;100.00
34297;BME280;20564;42.902;25.336;2023-03-22T04:42:54;96874.41;;;9.37;100.00
34297;BME280;20564;42.902;25.336;2023-03-22T04:45:24;96889.88;;;9.40;100.00
34297;BME280;20564;42.902;25.336;2023-03-22T04:47:58;96889.03;;;9.50;100.00
34297;BME280;20564;42.902;25.336;2023-03-22T04:50:27;96896.78;;;9.51;100.00
34297;BME280;20564;42.902;25.336;2023-03-22T04:52:54;96897.06;;;9.48;100.00
34297;BME280;20564;42.902;25.336;2023-03-22T04:55:20;96903.41;;;9.46;100.00
34297;BME280;20564;42.902;25.336;2023-03-22T04:57:52;96908.13;;;9.42;100.00
34297;BME280;20564;42.902;25.336;2023-03-22T05:00:24;96907.56;;;9.38;100.00
34297;BME280;20564;42.902;25.336;2023-03-22T05:02:52;96909.53;;;9.36;100.00
34297;BME280;20564;42.902;25.336;2023-03-22T05:05:22;96914.47;;;9.39;100.00
34297;BME280;20564;42.902;25.336;2023-03-22T05:07:50;96918.78;;;9.40;100.00
34297;BME280;20564;42.902;25.336;2023-03-22T05:10:17;96921.13;;;9.44;100.00
34297;BME280;20564;42.902;25.336;2023-03-22T05:12:45;96920.53;;;9.50;100.00
34297;BME280;20564;42.902;25.336;2023-03-22T05:15:13;96930.09;;;9.51;100.00
34297;BME280;20564;42.902;25.336;2023-03-22T05:17:41;96939.22;;;9.47;100.00
34297;BME280;20564;42.902;25.336;2023-03-22T05:20:08;96931.31;;;9.47;100.00
34297;BME280;20564;42.902;25.336;2023-03-22T05:22:51;96934.38;;;9.42;100.00
34297;BME280;20564;42.902;25.336;2023-03-22T05:25:48;96935.47;;;9.39;100.00
34297;BME280;20564;42.902;25.336;2023-03-22T05:28:17;96949.03;;;9.45;100.00
34297;BME280;20564;42.902;25.336;2023-03-22T05:30:48;96947.66;;;9.50;100.00
34297;BME280;20564;42.902;25.336;2023-03-22T05:33:15;96955.69;;;9.49;100.00
34297;BME280;20564;42.902;25.336;2023-03-22T05:35:48;96954.03;;;9.48;100.00
34297;BME280;20564;42.902;25.336;2023-03-22T05:38:18;96951.94;;;9.51;100.00
34297;BME280;20564;42.902;25.336;2023-03-22T05:40:48;96950.66;;;9.65;100.00
34297;BME280;20564;42.902;25.336;2023-03-22T05:43:18;96960.94;;;9.58;100.00
34297;BME280;20564;42.902;25.336;2023-03-22T05:45:46;96957.44;;;9.58;100.00
34297;BME280;20564;42.902;25.336;2023-03-22T05:48:14;96954.00;;;9.57;100.00
34297;BME280;20564;42.902;25.336;2023-03-22T05:50:45;96964.22;;;9.60;100.00
34297;BME280;20564;42.902;25.336;2023-03-22T05:53:15;96967.56;;;9.62;100.00
34297;BME280;20564;42.902;25.336;2023-03-22T05:55:42;96964.78;;;9.64;100.00
34297;BME280;20564;42.902;25.336;2023-03-22T05:58:11;96969.78;;;9.67;100.00
34297;BME280;20564;42.902;25.336;2023-03-22T06:00:38;96973.38;;;9.66;100.00
34297;BME280;20564;42.902;25.336;2023-03-22T06:03:06;96976.56;;;9.70;100.00
34297;BME280;20564;42.902;25.336;2023-03-22T06:05:35;96984.84;;;9.75;100.00
34297;BME280;20564;42.902;25.336;2023-03-22T06:08:02;96989.97;;;9.76;100.00
34297;BME280;20564;42.902;25.336;2023-03-22T06:10:30;97001.31;;;9.77;100.00
34297;BME280;20564;42.902;25.336;2023-03-22T06:12:58;97004.50;;;9.80;100.00
34297;BME280;20564;42.902;25.336;2023-03-22T06:15:25;97002.25;;;9.76;100.00
34297;BME280;20564;42.902;25.336;2023-03-22T06:17:55;97004.34;;;9.72;100.00
34297;BME280;20564;42.902;25.336;2023-03-22T06:20:22;97011.66;;;9.78;100.00
34297;BME280;20564;42.902;25.336;2023-03-22T06:22:49;97012.78;;;9.85;100.00
34297;BME280;20564;42.902;25.336;2023-03-22T06:25:19;96993.53;;;9.85;100.00
34297;BME280;20564;42.902;25.336;2023-03-22T06:27:47;97002.69;;;9.81;100.00
34297;BME280;20564;42.902;25.336;2023-03-22T06:30:14;97019.84;;;9.85;100.00
34297;BME280;20564;42.902;25.336;2023-03-22T06:32:41;97019.00;;;9.84;100.00
34297;BME280;20564;42.902;25.336;2023-03-22T06:35:11;97027.28;;;9.89;100.00
34297;BME280;20564;42.902;25.336;2023-03-22T06:37:38;97015.94;;;9.99;100.00
34297;BME280;20564;42.902;25.336;2023-03-22T06:40:06;97013.16;;;10.00;100.00
34297;BME280;20564;42.902;25.336;2023-03-22T06:42:33;97015.38;;;10.05;100.00
34297;BME280;20564;42.902;25.336;2023-03-22T06:45:00;97034.19;;;10.10;100.00
34297;BME280;20564;42.902;25.336;2023-03-22T06:47:27;97028.50;;;10.05;100.00
34297;BME280;20564;42.902;25.336;2023-03-22T06:49:55;97038.63;;;10.00;100.00
34297;BME280;20564;42.902;25.336;2023-03-22T06:52:22;97037.38;;;10.13;100.00
34297;BME280;20564;42.902;25.336;2023-03-22T06:54:49;97044.44;;;10.13;100.00
34297;BME280;20564;42.902;25.336;2023-03-22T06:57:16;97048.28;;;10.09;100.00
34297;BME280;20564;42.902;25.336;2023-03-22T06:59:43;97047.34;;;10.00;100.00
34297;BME280;20564;42.902;25.336;2023-03-22T07:02:11;97046.78;;;9.97;100.00
34297;BME280;20564;42.902;25.336;2023-03-22T07:04:40;97049.31;;;9.88;100.00
34297;BME280;20564;42.902;25.336;2023-03-22T07:07:06;97054.13;;;9.83;100.00
34297;BME280;20564;42.902;25.336;2023-03-22T07:09:33;97051.66;;;9.82;100.00
34297;BME280;20564;42.902;25.336;2023-03-22T07:12:00;97061.75;;;9.77;100.00
34297;BME280;20564;42.902;25.336;2023-03-22T07:14:27;97069.63;;;9.86;100.00
34297;BME280;20564;42.902;25.336;2023-03-22T07:16:55;97062.44;;;9.98;100.00
34297;BME280;20564;42.902;25.336;2023-03-22T07:19:25;97056.34;;;9.98;100.00
34297;BME280;20564;42.902;25.336;2023-03-22T07:21:53;97048.59;;;10.06;100.00
34297;BME280;20564;42.902;25.336;2023-03-22T07:24:20;97052.75;;;9.99;100.00
34297;BME280;20564;42.902;25.336;2023-03-22T07:26:47;97050.53;;;10.04;100.00
34297;BME280;20564;42.902;25.336;2023-03-22T07:29:13;97045.97;;;9.96;100.00
34297;BME280;20564;42.902;25.336;2023-03-22T07:31:41;97045.16;;;9.96;100.00
34297;BME280;20564;42.902;25.336;2023-03-22T07:34:08;97049.69;;;9.94;100.00
34297;BME280;20564;42.902;25.336;2023-03-22T07:36:35;97061.91;;;9.95;100.00
34297;BME280;20564;42.902;25.336;2023-03-22T07:39:04;97059.66;;;10.00;100.00
34297;BME280;20564;42.902;25.336;2023-03-22T07:41:34;97062.16;;;10.11;100.00
34297;BME280;20564;42.902;25.336;2023-03-22T07:44:01;97054.66;;;10.16;100.00
34297;BME280;20564;42.902;25.336;2023-03-22T07:46:44;97058.56;;;10.31;100.00
34297;BME280;20564;42.902;25.336;2023-03-22T07:49:13;97052.44;;;10.41;100.00
34297;BME280;20564;42.902;25.336;2023-03-22T07:51:40;97053.25;;;10.51;100.00
34297;BME280;20564;42.902;25.336;2023-03-22T07:54:07;97058.59;;;10.59;100.00
34297;BME280;20564;42.902;25.336;2023-03-22T07:56:37;97051.50;;;10.69;100.00
34297;BME280;20564;42.902;25.336;2023-03-22T07:59:04;97060.59;;;10.84;100.00
34297;BME280;20564;42.902;25.336;2023-03-22T08:01:32;97058.75;;;10.95;100.00
34297;BME280;20564;42.902;25.336;2023-03-22T08:03:59;97062.06;;;10.97;100.00
34297;BME280;20564;42.902;25.336;2023-03-22T08:06:27;97056.91;;;11.05;100.00
34297;BME280;20564;42.902;25.336;2023-03-22T08:08:55;97058.56;;;11.06;100.00
34297;BME280;20564;42.902;25.336;2023-03-22T08:11:23;97053.28;;;11.06;100.00
34297;BME280;20564;42.902;25.336;2023-03-22T08:13:49;97051.34;;;11.08;100.00
34297;BME280;20564;42.902;25.336;2023-03-22T08:16:16;97052.72;;;11.12;100.00
34297;BME280;20564;42.902;25.336;2023-03-22T08:18:43;97056.00;;;11.14;100.00
34297;BME280;20564;42.902;25.336;2023-03-22T08:21:11;97054.00;;;11.08;100.00
34297;BME280;20564;42.902;25.336;2023-03-22T08:23:38;97044.69;;;11.04;100.00
34297;BME280;20564;42.902;25.336;2023-03-22T08:26:08;97046.78;;;11.00;100.00
34297;BME280;20564;42.902;25.336;2023-03-22T08:28:36;97048.03;;;11.06;100.00
34297;BME280;20564;42.902;25.336;2023-03-22T08:31:14;97058.19;;;11.01;100.00
34297;BME280;20564;42.902;25.336;2023-03-22T08:33:42;97056.91;;;11.05;100.00
34297;BME280;20564;42.902;25.336;2023-03-22T08:36:19;97051.34;;;11.08;100.00
34297;BME280;20564;42.902;25.336;2023-03-22T08:38:48;97052.31;;;11.07;100.00
34297;BME280;20564;42.902;25.336;2023-03-22T08:41:16;97054.53;;;11.12;100.00
34297;BME280;20564;42.902;25.336;2023-03-22T08:43:43;97046.56;;;11.21;100.00
34297;BME280;20564;42.902;25.336;2023-03-22T08:46:09;97041.34;;;11.29;100.00
34297;BME280;20564;42.902;25.336;2023-03-22T08:48:36;97044.84;;;11.48;100.00
34297;BME280;20564;42.902;25.336;2023-03-22T08:51:06;97040.41;;;11.66;100.00
34297;BME280;20564;42.902;25.336;2023-03-22T08:53:33;97040.41;;;11.66;100.00
34297;BME280;20564;42.902;25.336;2023-03-22T08:56:01;97042.31;;;11.74;100.00
34297;BME280;20564;42.902;25.336;2023-03-22T08:58:27;97047.28;;;11.77;100.00
34297;BME280;20564;42.902;25.336;2023-03-22T09:00:54;97052.50;;;11.87;100.00
34297;BME280;20564;42.902;25.336;2023-03-22T09:03:21;97046.34;;;11.96;100.00
34297;BME280;20564;42.902;25.336;2023-03-22T09:05:50;97051.44;;;11.97;100.00
34297;BME280;20564;42.902;25.336;2023-03-22T09:08:19;97054.72;;;12.17;100.00
34297;BME280;20564;42.902;25.336;2023-03-22T09:10:47;97054.03;;;12.33;100.00
34297;BME280;20564;42.902;25.336;2023-03-22T09:13:18;97044.47;;;12.58;100.00
34297;BME280;20564;42.902;25.336;2023-03-22T09:15:45;97058.75;;;12.73;100.00
34297;BME280;20564;42.902;25.336;2023-03-22T09:18:13;97052.47;;;12.74;100.00
34297;BME280;20564;42.902;25.336;2023-03-22T09:20:41;97063.63;;;12.68;99.57
34297;BME280;20564;42.902;25.336;2023-03-22T09:23:08;97067.59;;;12.64;100.00
34297;BME280;20564;42.902;25.336;2023-03-22T09:25:36;97063.13;;;12.65;100.00
34297;BME280;20564;42.902;25.336;2023-03-22T09:28:03;97065.63;;;12.66;100.00
34297;BME280;20564;42.902;25.336;2023-03-22T09:30:31;97065.00;;;12.72;100.00
34297;BME280;20564;42.902;25.336;2023-03-22T09:32:58;97047.59;;;12.88;97.90
34297;BME280;20564;42.902;25.336;2023-03-22T09:35:25;97055.13;;;12.83;95.17
34297;BME280;20564;42.902;25.336;2023-03-22T09:37:52;97048.09;;;12.91;97.72
34297;BME280;20564;42.902;25.336;2023-03-22T09:40:31;97059.34;;;13.01;98.27
34297;BME280;20564;42.902;25.336;2023-03-22T09:43:04;97051.31;;;13.11;96.63
34297;BME280;20564;42.902;25.336;2023-03-22T09:45:39;97048.97;;;13.08;93.59
34297;BME280;20564;42.902;25.336;2023-03-22T09:48:13;97045.72;;;13.22;96.89
34297;BME280;20564;42.902;25.336;2023-03-22T09:50:52;97046.44;;;13.24;90.44
34297;BME280;20564;42.902;25.336;2023-03-22T09:53:22;97050.81;;;13.16;90.40
34297;BME280;20564;42.902;25.336;2023-03-22T09:56:06;97048.66;;;13.11;90.06
34297;BME280;20564;42.902;25.336;2023-03-22T10:02:51;97044.38;;;13.10;89.38
34297;BME280;20564;42.902;25.336;2023-03-22T10:10:20;97049.59;;;13.28;92.83
34297;BME280;20564;42.902;25.336;2023-03-22T10:15:40;97041.56;;;13.62;90.19
34297;BME280;20564;42.902;25.336;2023-03-22T10:18:32;97044.91;;;13.81;89.88
34297;BME280;20564;42.902;25.336;2023-03-22T10:21:08;97041.91;;;14.00;88.81
34297;BME280;20564;42.902;25.336;2023-03-22T10:26:20;97040.13;;;14.17;85.71
34297;BME280;20564;42.902;25.336;2023-03-22T10:29:08;97032.34;;;14.15;85.73
34297;BME280;20564;42.902;25.336;2023-03-22T10:31:42;97034.50;;;14.20;84.16
34297;BME280;20564;42.902;25.336;2023-03-22T10:36:50;97027.88;;;14.16;85.83
34297;BME280;20564;42.902;25.336;2023-03-22T10:41:55;97030.03;;;14.20;87.61
34297;BME280;20564;42.902;25.336;2023-03-22T10:44:25;97022.75;;;14.22;88.68
34297;BME280;20564;42.902;25.336;2023-03-22T10:46:55;97025.72;;;14.11;87.78
34297;BME280;20564;42.902;25.336;2023-03-22T10:49:29;97022.75;;;14.06;91.29
34297;BME280;20564;42.902;25.336;2023-03-22T10:52:02;97021.09;;;14.05;91.13
34297;BME280;20564;42.902;25.336;2023-03-22T10:54:31;97018.59;;;13.95;92.15
34297;BME280;20564;42.902;25.336;2023-03-22T10:57:01;97016.78;;;13.96;91.96
34297;BME280;20564;42.902;25.336;2023-03-22T10:59:45;97009.81;;;14.11;90.28
34297;BME280;20564;42.902;25.336;2023-03-22T11:02:26;97027.53;;;14.03;90.17
34297;BME280;20564;42.902;25.336;2023-03-22T11:04:58;97026.72;;;14.02;88.77
34297;BME280;20564;42.902;25.336;2023-03-22T11:07:35;97022.56;;;13.99;89.04
34297;BME280;20564;42.902;25.336;2023-03-22T11:12:38;97019.59;;;13.94;85.14
34297;BME280;20564;42.902;25.336;2023-03-22T11:15:19;97010.84;;;13.94;87.73
34297;BME280;20564;42.902;25.336;2023-03-22T11:17:49;97005.38;;;13.87;90.72
34297;BME280;20564;42.902;25.336;2023-03-22T11:20:18;97009.19;;;13.85;88.79
34297;BME280;20564;42.902;25.336;2023-03-22T11:22:47;97014.16;;;13.80;86.15
34297;BME280;20564;42.902;25.336;2023-03-22T11:25:26;97013.31;;;13.71;90.49
34297;BME280;20564;42.902;25.336;2023-03-22T11:28:05;97005.03;;;13.58;88.75
34297;BME280;20564;42.902;25.336;2023-03-22T11:30:35;97011.47;;;13.63;91.65
34297;BME280;20564;42.902;25.336;2023-03-22T11:33:18;97015.44;;;13.67;91.32
34297;BME280;20564;42.902;25.336;2023-03-22T11:35:53;97004.22;;;13.82;90.80
34297;BME280;20564;42.902;25.336;2023-03-22T11:38:27;97005.22;;;13.89;89.05
34297;BME280;20564;42.902;25.336;2023-03-22T11:41:22;96993.81;;;13.88;85.99
34297;BME280;20564;42.902;25.336;2023-03-22T11:43:57;96993.66;;;13.98;87.80
34297;BME280;20564;42.902;25.336;2023-03-22T11:46:28;96996.28;;;14.06;87.50
34297;BME280;20564;42.902;25.336;2023-03-22T11:49:01;96990.81;;;13.99;88.07
34297;BME280;20564;42.902;25.336;2023-03-22T11:51:32;96994.97;;;14.02;88.48
34297;BME280;20564;42.902;25.336;2023-03-22T11:54:13;96996.28;;;14.06;87.36
34297;BME280;20564;42.902;25.336;2023-03-22T11:56:46;96997.28;;;14.05;87.14
34297;BME280;20564;42.902;25.336;2023-03-22T11:59:28;97004.22;;;13.98;86.83
34297;BME280;20564;42.902;25.336;2023-03-22T12:04:48;96999.59;;;14.16;86.47
34297;BME280;20564;42.902;25.336;2023-03-22T12:07:19;96990.63;;;14.26;85.40
34297;BME280;20564;42.902;25.336;2023-03-22T12:10:16;96995.25;;;14.32;85.10
34297;BME280;20564;42.902;25.336;2023-03-22T12:12:53;96993.59;;;14.39;83.37
34297;BME280;20564;42.902;25.336;2023-03-22T12:15:25;96997.91;;;14.32;82.63
34297;BME280;20564;42.902;25.336;2023-03-22T12:18:02;96994.94;;;14.27;82.21
34297;BME280;20564;42.902;25.336;2023-03-22T12:20:42;96986.34;;;14.16;83.86
34297;BME280;20564;42.902;25.336;2023-03-22T12:23:16;96994.59;;;14.21;87.28
34297;BME280;20564;42.902;25.336;2023-03-22T12:28:39;96992.16;;;13.95;84.31
34297;BME280;20564;42.902;25.336;2023-03-22T12:31:12;96994.31;;;13.92;85.30
34297;BME280;20564;42.902;25.336;2023-03-22T12:33:46;96989.19;;;13.98;86.71
34297;BME280;20564;42.902;25.336;2023-03-22T12:36:20;96994.28;;;14.00;85.36
34297;BME280;20564;42.902;25.336;2023-03-22T12:38:55;96994.97;;;13.86;87.13
34297;BME280;20564;42.902;25.336;2023-03-22T12:41:34;96989.50;;;13.71;86.00
34297;BME280;20564;42.902;25.336;2023-03-22T12:46:57;97002.56;;;13.64;88.95
34297;BME280;20564;42.902;25.336;2023-03-22T12:49:40;97000.88;;;13.39;87.95
34297;BME280;20564;42.902;25.336;2023-03-22T12:52:12;97009.25;;;13.26;89.35
34297;BME280;20564;42.902;25.336;2023-03-22T12:54:43;97008.03;;;13.12;91.16
34297;BME280;20564;42.902;25.336;2023-03-22T12:57:17;96998.13;;;13.06;91.08
34297;BME280;20564;42.902;25.336;2023-03-22T13:00:06;97004.03;;;13.00;90.50
34297;BME280;20564;42.902;25.336;2023-03-22T13:02:48;97001.06;;;12.95;90.80
34297;BME280;20564;42.902;25.336;2023-03-22T13:05:19;96999.38;;;12.94;90.36
34297;BME280;20564;42.902;25.336;2023-03-22T13:10:40;96998.88;;;12.90;91.72
34297;BME280;20564;42.902;25.336;2023-03-22T13:18:56;97018.44;;;12.71;92.70
34297;BME280;20564;42.902;25.336;2023-03-22T13:21:30;97013.63;;;12.67;92.24
34297;BME280;20564;42.902;25.336;2023-03-22T13:27:05;97021.00;;;12.55;93.06
34297;BME280;20564;42.902;25.336;2023-03-22T13:29:48;97020.28;;;12.45;93.26
34297;BME280;20564;42.902;25.336;2023-03-22T13:35:21;97023.44;;;12.22;94.64
34297;BME280;20564;42.902;25.336;2023-03-22T13:38:13;97015.53;;;12.22;96.79
34297;BME280;20564;42.902;25.336;2023-03-22T13:43:46;97020.75;;;12.14;97.96
34297;BME280;20564;42.902;25.336;2023-03-22T13:51:33;97023.41;;;12.14;98.57
34297;BME280;20564;42.902;25.336;2023-03-22T13:56:51;97028.59;;;12.06;99.72
34297;BME280;20564;42.902;25.336;2023-03-22T13:59:29;97031.09;;;12.07;99.04
34297;BME280;20564;42.902;25.336;2023-03-22T14:02:23;97027.53;;;11.99;99.55
34297;BME280;20564;42.902;25.336;2023-03-22T14:05:00;97024.91;;;11.99;97.83
34297;BME280;20564;42.902;25.336;2023-03-22T14:07:54;97025.22;;;11.96;99.12
34297;BME280;20564;42.902;25.336;2023-03-22T14:13:13;97029.13;;;11.92;100.00
34297;BME280;20564;42.902;25.336;2023-03-22T14:16:14;97031.16;;;11.80;100.00
34297;BME280;20564;42.902;25.336;2023-03-22T14:18:46;97018.19;;;11.69;100.00
34297;BME280;20564;42.902;25.336;2023-03-22T14:21:22;97024.75;;;11.65;100.00
34297;BME280;20564;42.902;25.336;2023-03-22T14:23:53;97028.31;;;11.55;100.00
34297;BME280;20564;42.902;25.336;2023-03-22T14:26:37;97026.09;;;11.51;100.00
34297;BME280;20564;42.902;25.336;2023-03-22T14:29:16;97035.75;;;11.60;100.00
34297;BME280;20564;42.902;25.336;2023-03-22T14:32:11;97028.84;;;11.59;100.00
34297;BME280;20564;42.902;25.336;2023-03-22T14:34:38;97029.44;;;11.53;100.00
34297;BME280;20564;42.902;25.336;2023-03-22T14:37:12;97030.31;;;11.44;100.00
34297;BME280;20564;42.902;25.336;2023-03-22T14:39:41;97033.25;;;11.41;100.00
34297;BME280;20564;42.902;25.336;2023-03-22T14:44:49;97029.25;;;11.37;100.00